ADDS METAR Data INFO
IDs: Format: Raw Decoded Include TAF

Data at: 1410 UTC 12 Dec 2017

KDHN 121353Z 29012KT 10SM CLR 09/06 A3000 RMK AO2 SLP158 T00890061 $
KDHN 121253Z 27008KT 10SM CLR 08/06 A2999 RMK AO2 SLP154 T00780061 $
KDHN 121153Z 26008KT 10SM CLR 08/07 A2998 RMK AO2 SLP152 T00780067 10094 20072 55010 $
KDHN 121053Z AUTO 26008KT 10SM CLR 08/07 A2997 RMK AO2 SLP148 T00830072 $
KDHN 120953Z AUTO 23006KT 10SM CLR 08/07 A2998 RMK AO2 SLP149 T00780067 $
KDHN 120853Z AUTO 24006KT 10SM CLR 08/07 A3001 RMK AO2 SLP161 T00830072 58016 $
KDHN 120753Z AUTO 23008KT 10SM CLR 08/07 A3003 RMK AO2 SLP167 T00830067 $
KDHN 120653Z AUTO 22008KT 10SM CLR 08/07 A3005 RMK AO2 SLP173 T00830067 $
KDHN 120553Z AUTO 23009KT 10SM CLR 09/07 A3006 RMK AO2 SLP177 T00890067 10122 20089 58018 $
KDHN 120453Z AUTO 23008KT 10SM CLR 09/06 A3008 RMK AO2 SLP186 T00940061 401780000 $
KDHN 120353Z AUTO 24008KT 10SM CLR 11/06 A3011 RMK AO2 SLP193 T01060056 $
KDHN 120253Z AUTO 22007KT 10SM CLR 09/05 A3011 RMK AO2 SLP196 T00940050 56006 $
KDHN 120153Z 22007KT 10SM CLR 11/04 A3012 RMK AO2 SLP197 T01060039 $
KDHN 120053Z 21009KT 10SM CLR 12/03 A3011 RMK AO2 SLP197 T01170028 $
KDHN 112353Z 20007KT 10SM CLR 12/02 A3013 RMK AO2 SLP203 T01220022 10178 20117 56006 $
KDHN 112253Z 22005KT 10SM CLR 14/02 A3013 RMK AO2 SLP203 T01390022 $
KDHN 112153Z 24010KT 10SM CLR 17/01 A3014 RMK AO2 SLP205 T01670011 $
KDHN 112053Z 22009KT 10SM CLR 17/02 A3015 RMK AO2 SLP208 T01720017 56021 $
KDHN 111953Z 23012KT 10SM CLR 18/02 A3016 RMK AO2 SLP213 T01780017 $
KDHN 111853Z 23005KT 10SM CLR 16/03 A3018 RMK AO2 SLP219 T01610028 $
KDHN 111753Z 26008KT 10SM CLR 16/02 A3021 RMK AO2 SLP229 T01560022 10156 20006 58030 $
KDHN 111653Z 26007KT 10SM CLR 14/02 A3025 RMK AO2 SLP243 T01390022 $
KDHN 111553Z 26006KT 10SM CLR 12/02 A3029 RMK AO2 SLP255 T01220017 $
KDHN 111453Z 26006KT 10SM CLR 08/03 A3030 RMK AO2 SLP260 T00830033 $
KDHN 111353Z 26006KT 10SM CLR 04/03 A3030 RMK AO2 SLP263 T00440028 $
KDHN 111253Z 00000KT 9SM 01/01 A3030 RMK AO2 SLP263 T00110006 $
KDHN 111153Z 01003KT 10SM CLR 01/00 A3029 RMK AO2 SLP259 T00110000 10033 20000 55003
KDHN 111053Z AUTO 10SM CLR 01/M01 A3029 RMK AO2 SLP258 T00061006 $
KDHN 110953Z AUTO 26003KT 10SM CLR 03/01 A3029 RMK AO2 SLP258 T00330011 $
KDHN 110853Z AUTO 28004KT 10SM CLR 02/M01 A3030 RMK AO2 SLP262 T00171006 56011 $
KDHN 110753Z AUTO 29007KT 10SM CLR 02/00 A3031 RMK AO2 SLP265 T00220000 $
KDHN 110653Z AUTO 29006KT 10SM CLR 03/M01 A3032 RMK AO2 SLP268 T00281006 $
KDHN 110553Z AUTO 23004KT 10SM CLR 01/M01 A3034 RMK AO2 SLP274 T00111011 10072 20011 56003 $
KDHN 110453Z AUTO 23003KT 10SM CLR 01/M01 A3034 RMK AO2 SLP274 T00111011 401111017 $
KDHN 110353Z AUTO 31003KT 10SM CLR 02/M01 A3034 RMK AO2 SLP274 T00221011 $
KDHN 110253Z AUTO 25004KT 10SM CLR 02/M01 A3034 RMK AO2 SLP277 T00221011 53007 $